Time;durP1;ratioP1;P1;durP2;ratioP2;P2;SDS_P1;SDS_P2;PMS_P1;PMS_P2;Temp;Humidity;BMP_temperature;BMP_pressure;BME280_temperature;BME280_humidity;BME280_pressure;Samples;Min_cycle;Max_cycle;Signal;HPM_P1;HPM_P2
2023/07/17 00:02:45;;;;;;;7.30;4.70;;;;;;;21.92;62.83;100452.55;113043;1238;21942;-82
2023/07/17 00:05:47;;;;;;;8.50;5.10;;;;;;;21.90;63.05;100441.55;112074;1246;21954;-83
2023/07/17 00:08:42;;;;;;;7.90;5.60;;;;;;;21.86;62.96;100440.27;112297;1246;21950;-82
2023/07/17 00:11:42;;;;;;;6.00;5.40;;;;;;;21.78;63.09;100440.59;112037;1245;23092;-81
2023/07/17 00:14:25;;;;;;;6.00;5.50;;;;;;;21.77;63.20;100443.35;111870;1250;21966;-81
2023/07/17 00:17:30;;;;;;;5.90;5.30;;;;;;;21.74;63.35;100441.43;111667;1252;22724;-83
2023/07/17 00:20:48;;;;;;;6.50;5.90;;;;;;;21.73;63.42;100442.23;111332;1253;21979;-82
2023/07/17 00:23:53;;;;;;;;;;;;;;;;;;;;;
2023/07/17 00:27:01;;;;;;;9.00;6.70;;;;;;;21.52;63.48;100434.77;112083;1246;21963;-83
2023/07/17 00:30:12;;;;;;;6.50;5.80;;;;;;;21.45;63.76;100433.97;112033;1246;22026;-81
2023/07/17 00:33:36;;;;;;;7.60;6.30;;;;;;;21.39;63.89;100441.45;112382;1243;21981;-81
2023/07/17 00:36:27;;;;;;;6.50;5.70;;;;;;;21.35;64.19;100440.04;112451;1242;21951;-81
2023/07/17 00:39:12;;;;;;;7.00;6.20;;;;;;;21.36;64.24;100436.23;112581;1242;22019;-82
2023/07/17 00:42:12;;;;;;;5.50;5.00;;;;;;;21.34;64.45;100435.20;112661;1238;22223;-82
2023/07/17 00:45:00;;;;;;;6.90;5.50;;;;;;;21.31;64.52;100423.75;112880;1239;21956;-81
2023/07/17 00:48:10;;;;;;;6.10;5.60;;;;;;;21.36;64.54;100433.60;112953;1239;21945;-81
2023/07/17 00:51:30;;;;;;;7.50;5.40;;;;;;;21.30;64.41;100439.55;113159;1239;21960;-82
2023/07/17 00:55:00;;;;;;;6.70;6.00;;;;;;;21.26;64.43;100441.45;112819;1239;21941;-82
2023/07/17 00:58:21;;;;;;;;;;;;;;;;;;;;;
2023/07/17 01:02:33;;;;;;;;;;;;;;;;;;;;;
2023/07/17 01:05:43;;;;;;;8.70;6.10;;;;;;;21.14;65.03;100424.95;112799;1240;23069;-82
2023/07/17 01:08:52;;;;;;;8.00;6.00;;;;;;;21.14;65.06;100427.77;112852;1239;22539;-80
2023/07/17 01:12:27;;;;;;;6.30;5.70;;;;;;;21.12;64.97;100437.87;112315;1240;23807;-79
2023/07/17 01:15:32;;;;;;;8.00;5.80;;;;;;;21.10;65.20;100434.30;112837;1240;23207;-80
2023/07/17 01:18:10;;;;;;;6.40;5.50;;;;;;;21.10;65.28;100433.04;112977;1240;22837;-79
2023/07/17 01:20:53;;;;;;;7.80;5.60;;;;;;;21.14;65.08;100432.91;112573;1240;22028;-77
2023/07/17 01:23:58;;;;;;;6.40;5.80;;;;;;;21.09;65.18;100429.91;112449;1240;21961;-80
2023/07/17 01:26:47;;;;;;;8.30;5.70;;;;;;;21.05;65.16;100432.18;112662;1240;23584;-79
2023/07/17 01:29:37;;;;;;;8.60;5.60;;;;;;;21.03;65.06;100429.30;112517;1240;23101;-79
2023/07/17 01:32:20;;;;;;;8.10;6.10;;;;;;;20.99;65.11;100431.63;112763;1240;23571;-81
2023/07/17 01:35:22;;;;;;;6.50;5.60;;;;;;;20.96;65.24;100435.41;112719;1240;21941;-81
2023/07/17 01:38:15;;;;;;;;;;;;;;;;;;;;;
2023/07/17 01:41:04;;;;;;;6.30;5.60;;;;;;;20.90;65.42;100424.03;113002;1240;22951;-81
2023/07/17 01:43:58;;;;;;;8.10;5.60;;;;;;;20.80;65.45;100415.11;113816;1231;21978;-81
2023/07/17 01:47:27;;;;;;;9.10;5.70;;;;;;;20.78;65.35;100418.98;113283;1237;21985;-83
2023/07/17 01:50:40;;;;;;;6.90;5.30;;;;;;;20.71;65.68;100420.42;113119;1237;22040;-80
2023/07/17 01:54:21;;;;;;;6.30;5.70;;;;;;;20.68;66.06;100441.54;113077;1237;21941;-84
2023/07/17 01:57:28;;;;;;;6.50;5.80;;;;;;;20.70;66.19;100451.78;112827;1237;22074;-83
2023/07/17 02:01:04;;;;;;;6.90;6.20;;;;;;;20.70;66.06;100448.23;112871;1237;21987;-82
2023/07/17 02:08:26;;;;;;;7.70;5.80;;;;;;;20.61;66.21;100443.27;112094;1249;22066;-83
2023/07/17 02:11:46;;;;;;;9.40;5.30;;;;;;;20.58;66.31;100439.58;111844;1249;22130;-82
2023/07/17 02:15:11;;;;;;;6.10;5.50;;;;;;;20.59;66.40;100441.27;111521;1249;23814;-83
2023/07/17 02:18:36;;;;;;;;;;;;;;;;;;;;;
2023/07/17 02:22:09;;;;;;;7.20;5.20;;;;;;;20.62;66.59;100455.42;112277;1244;21954;-81
2023/07/17 02:25:20;;;;;;;5.90;5.00;;;;;;;20.64;66.59;100447.08;111414;1253;23031;-81
2023/07/17 02:28:43;;;;;;;7.70;6.10;;;;;;;20.68;66.67;100442.91;111147;1258;23035;-82
2023/07/17 02:31:54;;;;;;;8.60;7.00;;;;;;;20.69;66.56;100429.92;110806;1260;22952;-79
2023/07/17 02:36:03;;;;;;;9.20;7.40;;;;;;;20.62;66.49;100437.19;110810;1261;23603;-81
2023/07/17 02:38:37;;;;;;;7.50;6.80;;;;;;;20.52;66.50;100448.02;110383;1264;23606;-80
2023/07/17 02:41:24;;;;;;;13.20;8.80;;;;;;;20.46;66.56;100453.05;110463;1264;22741;-80
2023/07/17 02:43:59;;;;;;;;;;;;;;;20.46;66.88;100462.13;111143;1254;21951;-81
2023/07/17 02:46:53;;;;;;;10.50;7.40;;;;;;;20.37;67.29;100475.86;111440;1254;22834;-83
2023/07/17 02:50:51;;;;;;;;;;;;;;;;;;;;;
2023/07/17 02:53:47;;;;;;;7.50;6.80;;;;;;;20.46;67.41;100498.33;110936;1260;23642;-83
2023/07/17 02:56:50;;;;;;;8.70;6.90;;;;;;;20.54;67.44;100497.58;110900;1259;24387;-83
2023/07/17 03:00:34;;;;;;;10.60;7.20;;;;;;;20.56;67.17;100505.84;110589;1265;23006;-83
2023/07/17 03:03:20;;;;;;;9.10;7.70;;;;;;;20.52;66.82;100515.52;110912;1257;22971;-83
2023/07/17 03:10:29;;;;;;;;;;;;;;;;;;;;;
2023/07/17 03:14:10;;;;;;;7.70;7.00;;;;;;;20.33;67.51;100514.70;111045;1261;23080;-83
2023/07/17 03:16:54;;;;;;;9.40;7.30;;;;;;;20.31;67.24;100513.41;111134;1258;21994;-82
2023/07/17 03:19:51;;;;;;;8.00;7.20;;;;;;;20.24;67.21;100510.63;111616;1258;22451;-84
2023/07/17 03:22:53;;;;;;;13.00;11.90;;;;;;;20.13;67.32;100521.14;112159;1254;21963;-84
2023/07/17 03:25:38;;;;;;;7.90;7.20;;;;;;;20.07;67.44;100518.80;111657;1249;23658;-80
2023/07/17 03:28:14;;;;;;;31.00;28.50;;;;;;;20.06;67.65;100519.07;111649;1249;21974;-80
2023/07/17 03:31:07;;;;;;;17.80;16.30;;;;;;;20.07;67.83;100524.96;112662;1238;23759;-84
2023/07/17 03:34:26;;;;;;;9.20;8.40;;;;;;;20.07;68.04;100535.38;112985;1238;21946;-82
2023/07/17 03:37:16;;;;;;;13.40;8.50;;;;;;;20.11;68.19;100531.08;113285;1238;22744;-82
2023/07/17 03:40:13;;;;;;;8.20;7.50;;;;;;;20.15;68.00;100528.58;112814;1238;22851;-81
2023/07/17 03:42:46;;;;;;;8.70;7.80;;;;;;;20.11;67.78;100546.36;113625;1231;21916;-81
2023/07/17 03:45:29;;;;;;;8.40;7.40;;;;;;;20.11;68.03;100549.54;112849;1238;22941;-80
2023/07/17 03:48:13;;;;;;;7.80;7.00;;;;;;;20.14;68.05;100545.11;112866;1238;23006;-83
2023/07/17 03:51:06;;;;;;;8.20;6.90;;;;;;;20.15;68.09;100551.58;112934;1238;23588;-83
2023/07/17 03:53:47;;;;;;;10.50;7.00;;;;;;;20.13;68.03;100553.30;112960;1238;21963;-85
2023/07/17 03:56:34;;;;;;;8.80;6.80;;;;;;;20.18;68.19;100550.31;112788;1238;24272;-84
2023/07/17 03:59:17;;;;;;;7.10;6.50;;;;;;;20.25;68.39;100549.42;112398;1244;22364;-85
2023/07/17 04:01:59;;;;;;;8.30;6.70;;;;;;;20.36;68.44;100549.13;112191;1246;22400;-84
2023/07/17 04:05:01;;;;;;;9.40;7.00;;;;;;;20.48;68.26;100545.73;112128;1246;24378;-85
2023/07/17 04:08:36;;;;;;;14.50;7.40;;;;;;;20.59;68.11;100535.94;112219;1246;23675;-83
2023/07/17 04:11:20;;;;;;;10.30;7.70;;;;;;;20.67;67.75;100529.77;112625;1241;23340;-81
2023/07/17 04:14:11;;;;;;;;;;;;;;;;;;;;;
2023/07/17 04:17:22;;;;;;;8.10;7.30;;;;;;;20.77;67.37;100525.65;112884;1235;23770;-84
2023/07/17 04:20:34;;;;;;;6.90;6.30;;;;;;;20.84;67.17;100531.29;113341;1235;22651;-83
2023/07/17 04:23:36;;;;;;;9.80;6.60;;;;;;;20.90;66.65;100533.14;113226;1235;21969;-83
2023/07/17 04:26:42;;;;;;;10.60;6.50;;;;;;;20.90;66.41;100534.25;113563;1231;24354;-84
2023/07/17 04:29:35;;;;;;;7.60;6.50;;;;;;;20.89;66.50;100530.58;113681;1231;23779;-84
2023/07/17 04:32:49;;;;;;;6.50;5.90;;;;;;;20.90;66.46;100528.91;113782;1231;22947;-81
2023/07/17 04:35:42;;;;;;;7.80;7.10;;;;;;;20.91;66.41;100533.05;113493;1231;21944;-82
2023/07/17 04:38:28;;;;;;;7.50;5.80;;;;;;;20.86;66.20;100531.35;113307;1232;22688;-82
2023/07/17 04:41:08;;;;;;;11.70;6.60;;;;;;;20.85;66.50;100532.66;113784;1228;22998;-82
2023/07/17 04:43:51;;;;;;;8.30;7.50;;;;;;;20.89;66.40;100535.69;113069;1237;22107;-82
2023/07/17 04:46:39;;;;;;;8.50;7.20;;;;;;;20.86;66.33;100536.63;113148;1237;21941;-83
2023/07/17 04:49:33;;;;;;;7.80;7.00;;;;;;;20.89;66.53;100532.02;113170;1237;23100;-83
2023/07/17 04:52:27;;;;;;;9.80;6.80;;;;;;;20.95;66.67;100522.48;112842;1237;22519;-83
2023/07/17 04:55:25;;;;;;;8.30;6.40;;;;;;;21.08;66.89;100519.68;113338;1237;21947;-82
2023/07/17 04:58:23;;;;;;;8.70;7.10;;;;;;;21.28;66.87;100523.27;112815;1237;21950;-82
2023/07/17 05:01:49;;;;;;;6.90;6.30;;;;;;;21.58;67.07;100524.61;113362;1232;23991;-82
2023/07/17 05:04:27;;;;;;;13.50;12.30;;;;;;;22.00;67.25;100528.89;113722;1232;22407;-84
2023/07/17 05:07:11;;;;;;;7.10;6.20;;;;;;;22.45;66.22;100528.21;113877;1231;21970;-79
2023/07/17 05:09:54;;;;;;;7.20;5.90;;;;;;;22.92;65.25;100525.61;112999;1238;22084;-80
2023/07/17 05:13:05;;;;;;;10.30;5.80;;;;;;;23.48;64.29;100525.30;112063;1244;24437;-79
2023/07/17 05:17:03;;;;;;;;;;;;;;;;;;;;;
2023/07/17 05:19:52;;;;;;;6.10;4.70;;;;;;;24.40;59.37;100523.57;112027;1249;22161;-81
2023/07/17 05:23:13;;;;;;;8.20;5.10;;;;;;;24.58;58.10;100526.89;111826;1249;23062;-83
2023/07/17 05:33:29;;;;;;;;;;;;;;;;;;;;;
2023/07/17 05:41:32;;;;;;;9.30;3.60;;;;;;;26.34;53.28;100517.92;110308;1268;21970;-81
2023/07/17 05:45:04;;;;;;;4.20;3.10;;;;;;;26.75;52.15;100517.46;110028;1267;22039;-81
2023/07/17 05:48:20;;;;;;;9.30;3.60;;;;;;;27.22;51.06;100510.25;109632;1272;22125;-79
2023/07/17 06:02:16;;;;;;;3.90;3.10;;;;;;;29.49;44.05;100501.16;108328;1283;548078;-81
2023/07/17 06:05:42;;;;;;;4.30;3.20;;;;;;;30.38;40.07;100507.85;105706;1265;5542483;-81
2023/07/17 06:09:26;;;;;;;5.30;3.30;;;;;;;30.09;40.85;100503.36;109284;1277;21992;-81
2023/07/17 06:13:29;;;;;;;9.10;3.50;;;;;;;29.97;41.23;100505.27;108752;1280;21994;-82
2023/07/17 06:21:03;;;;;;;;;;;;;;;;;;;;;
2023/07/17 06:24:06;;;;;;;;;;;;;;;;;;;;;
2023/07/17 06:27:12;;;;;;;;;;;;;;;;;;;;;
2023/07/17 06:31:26;;;;;;;13.40;2.80;;;;;;;30.73;40.29;100488.23;108518;1288;23129;-81
2023/07/17 06:38:36;;;;;;;3.60;2.60;;;;;;;31.28;38.64;100490.14;108938;1282;22008;-82
2023/07/17 06:42:37;;;;;;;;;;;;;;;;;;;;;
2023/07/17 06:46:13;;;;;;;;;;;;;;;;;;;;;
2023/07/17 06:53:45;;;;;;;3.10;2.30;;;;;;;32.12;37.47;100483.40;108610;1288;22005;-83
2023/07/17 06:56:45;;;;;;;;;;;;;;;;;;;;;
2023/07/17 07:00:29;;;;;;;4.30;2.70;;;;;;;32.41;36.06;100477.38;108895;1284;23066;-82
2023/07/17 07:03:26;;;;;;;;;;;;;;;;;;;;;
2023/07/17 07:06:13;;;;;;;4.30;2.70;;;;;;;32.66;35.61;100482.27;108048;1291;22180;-79
2023/07/17 07:08:53;;;;;;;4.30;3.10;;;;;;;32.86;35.60;100480.56;108252;1289;22028;-78
2023/07/17 07:11:30;;;;;;;6.80;3.00;;;;;;;32.91;34.64;100473.44;108120;1289;23053;-79
2023/07/17 07:14:00;;;;;;;9.20;2.90;;;;;;;32.91;34.30;100473.05;108169;1289;22138;-78
2023/07/17 07:16:35;;;;;;;3.60;2.60;;;;;;;32.90;34.34;100472.63;108204;1289;22011;-79
2023/07/17 07:19:07;;;;;;;5.90;2.80;;;;;;;33.01;34.43;100472.39;108191;1288;22029;-79
2023/07/17 07:22:35;;;;;;;;;;;;;;;;;;;;;
2023/07/17 07:25:19;;;;;;;3.70;2.60;;;;;;;33.02;33.37;100463.74;108254;1293;23654;-79
2023/07/17 07:27:59;;;;;;;4.30;3.00;;;;;;;33.17;33.80;100465.92;107873;1294;23885;-78
2023/07/17 07:30:35;;;;;;;4.70;3.10;;;;;;;33.30;33.38;100464.92;108140;1291;22870;-79
2023/07/17 07:33:08;;;;;;;5.60;2.80;;;;;;;33.42;33.56;100468.27;108240;1291;23627;-79
2023/07/17 07:35:54;;;;;;;5.70;3.40;;;;;;;33.63;33.18;100460.75;108453;1290;23077;-79
2023/07/17 07:38:32;;;;;;;12.60;3.10;;;;;;;33.63;32.85;100456.68;108236;1289;22779;-78
2023/07/17 07:41:08;;;;;;;6.00;3.30;;;;;;;33.76;33.16;100461.10;108896;1276;23755;-79
2023/07/17 07:44:13;;;;;;;9.10;3.60;;;;;;;33.87;32.33;100467.23;109205;1276;23065;-79
2023/07/17 07:46:50;;;;;;;4.10;3.30;;;;;;;33.86;32.96;100470.48;108996;1270;22327;-79
2023/07/17 07:49:30;;;;;;;7.00;2.90;;;;;;;33.74;32.22;100475.13;109050;1276;22447;-79
2023/07/17 07:52:18;;;;;;;3.80;3.00;;;;;;;33.44;32.30;100475.95;109246;1276;23789;-79
2023/07/17 07:54:59;;;;;;;8.00;3.50;;;;;;;33.26;32.68;100479.31;109225;1276;21990;-79
2023/07/17 07:58:03;;;;;;;9.60;3.10;;;;;;;32.96;32.50;100479.39;109235;1276;23729;-78
2023/07/17 08:01:05;;;;;;;5.20;3.20;;;;;;;32.50;32.87;100475.20;109019;1276;21987;-79
2023/07/17 08:03:44;;;;;;;5.20;3.10;;;;;;;32.50;33.62;100462.89;108825;1273;22463;-79
2023/07/17 08:06:32;;;;;;;8.40;3.80;;;;;;;32.79;33.30;100455.00;108762;1281;22583;-79
2023/07/17 08:09:18;;;;;;;4.90;2.80;;;;;;;33.15;32.57;100451.36;109027;1281;23637;-78
2023/07/17 08:11:52;;;;;;;6.60;3.30;;;;;;;33.22;31.53;100443.56;108771;1273;21994;-79
2023/07/17 08:14:28;;;;;;;6.40;3.50;;;;;;;33.23;31.89;100437.16;108915;1281;24314;-79
2023/07/17 08:17:23;;;;;;;5.60;3.40;;;;;;;33.14;30.98;100449.53;108828;1281;21995;-80
2023/07/17 08:19:57;;;;;;;4.50;3.10;;;;;;;32.96;30.91;100458.20;108563;1281;21986;-79
2023/07/17 08:22:38;;;;;;;5.00;2.90;;;;;;;32.85;30.91;100462.21;108813;1277;23609;-78
2023/07/17 08:25:29;;;;;;;5.00;3.20;;;;;;;32.83;30.87;100461.14;108675;1280;21982;-79
2023/07/17 08:28:10;;;;;;;4.90;2.90;;;;;;;32.98;29.74;100458.11;109043;1280;22003;-79
2023/07/17 08:30:52;;;;;;;5.10;3.50;;;;;;;33.11;29.76;100452.64;108680;1282;21989;-78
2023/07/17 08:33:32;;;;;;;6.20;3.10;;;;;;;33.21;29.00;100447.56;108593;1282;24148;-80
2023/07/17 08:36:11;;;;;;;7.50;3.30;;;;;;;33.39;29.21;100457.73;108826;1282;22019;-79
2023/07/17 08:38:54;;;;;;;6.60;3.40;;;;;;;33.57;28.93;100460.23;108732;1282;21974;-79
2023/07/17 08:41:31;;;;;;;11.00;3.30;;;;;;;33.64;28.86;100459.34;108527;1285;23821;-79
2023/07/17 08:44:09;;;;;;;3.70;3.20;;;;;;;33.74;28.62;100455.64;108585;1285;22092;-79
2023/07/17 08:46:48;;;;;;;8.30;2.90;;;;;;;33.87;28.58;100454.02;108676;1267;21977;-80
2023/07/17 08:49:34;;;;;;;8.60;3.30;;;;;;;34.10;28.52;100456.02;108808;1279;23625;-80
2023/07/17 08:52:11;;;;;;;6.60;3.10;;;;;;;34.23;27.73;100456.94;108930;1278;22001;-81
2023/07/17 08:54:45;;;;;;;9.90;3.10;;;;;;;34.29;27.43;100455.71;109079;1274;22011;-81
2023/07/17 08:57:22;;;;;;;7.90;5.80;;;;;;;34.42;27.52;100456.85;108699;1284;22006;-80
2023/07/17 09:00:07;;;;;;;4.80;3.10;;;;;;;34.61;27.21;100459.88;108162;1287;21998;-80
2023/07/17 09:02:40;;;;;;;8.30;3.50;;;;;;;34.64;26.94;100459.02;108419;1286;22203;-78
2023/07/17 09:05:13;;;;;;;3.70;2.70;;;;;;;34.57;26.52;100461.81;108467;1287;21995;-80
2023/07/17 09:07:47;;;;;;;7.70;3.40;;;;;;;34.47;26.29;100463.92;108406;1287;22013;-79
2023/07/17 09:10:57;;;;;;;;;;;;;;;;;;;;;
2023/07/17 09:22:44;;;;;;;9.20;3.30;;;;;;;33.40;26.65;100458.63;108101;1289;548049;-80
2023/07/17 09:26:00;;;;;;;7.30;3.00;;;;;;;32.94;26.91;100460.09;110743;1260;22030;-80
2023/07/17 09:32:43;;;;;;;4.20;2.80;;;;;;;32.10;27.82;100467.57;108851;1282;21985;-80
2023/07/17 09:35:24;;;;;;;;;;;;;;;31.90;28.12;100462.79;108385;1283;410407;-80
2023/07/17 09:38:50;;;;;;;4.70;2.90;;;;;;;31.68;28.59;100461.69;108572;1284;22057;-84
2023/07/17 09:42:13;;;;;;;;;;;;;;;;;;;;;
2023/07/17 09:45:38;;;;;;;6.80;3.70;;;;;;;31.37;29.13;100463.92;108582;1288;22020;-84
2023/07/17 09:52:25;;;;;;;7.10;3.20;;;;;;;31.66;28.69;100451.99;107684;1297;23113;-80
2023/07/17 09:55:15;;;;;;;5.20;3.50;;;;;;;31.73;28.56;100457.00;107651;1296;22063;-80
2023/07/17 09:58:05;;;;;;;;;;;;;;;;;;;;;
2023/07/17 10:05:08;;;;;;;6.20;3.10;;;;;;;32.17;28.50;100449.02;108143;1295;22037;-80
2023/07/17 10:08:10;;;;;;;7.50;3.00;;;;;;;32.44;28.25;100449.77;107336;1301;22030;-78
2023/07/17 10:10:48;;;;;;;9.50;3.60;;;;;;;32.69;28.08;100449.13;108130;1291;24327;-79
2023/07/17 10:14:15;;;;;;;;;;;;;;;32.92;27.91;100443.98;108218;1292;23711;-87
2023/07/17 10:16:58;;;;;;;7.40;3.30;;;;;;;33.12;27.73;100439.21;108462;1289;22002;-81
2023/07/17 10:20:18;;;;;;;8.50;3.70;;;;;;;33.30;27.33;100439.09;108561;1288;23626;-80
2023/07/17 10:24:35;;;;;;;;;;;;;;;;;;;;;
2023/07/17 10:28:22;;;;;;;5.80;3.20;;;;;;;33.27;26.96;100436.84;108120;1296;22298;-80
2023/07/17 10:31:42;;;;;;;7.00;3.30;;;;;;;33.09;27.03;100425.00;108711;1285;22006;-80
2023/07/17 10:35:20;;;;;;;;;;;;;;;33.15;27.31;100426.74;108122;1292;22019;-80
2023/07/17 10:38:51;;;;;;;;;;;;;;;;;;;;;
2023/07/17 10:42:21;;;;;;;;;;;;;;;;;;;;;
2023/07/17 10:45:53;;;;;;;9.00;3.40;;;;;;;33.15;26.98;100437.09;108650;1281;22000;-81
2023/07/17 10:49:28;;;;;;;12.40;4.00;;;;;;;32.91;27.02;100437.33;108821;1279;22160;-80
2023/07/17 10:52:22;;;;;;;5.90;2.90;;;;;;;32.72;27.53;100431.10;108661;1279;23050;-78
2023/07/17 10:55:13;;;;;;;6.90;3.70;;;;;;;32.62;27.67;100430.38;108523;1281;22934;-80
2023/07/17 10:58:31;;;;;;;;;;;;;;;;;;;;;
2023/07/17 11:02:26;;;;;;;3.80;3.00;;;;;;;32.62;27.53;100421.59;108446;1285;22391;-77
2023/07/17 11:05:06;;;;;;;7.20;3.60;;;;;;;32.69;27.54;100416.10;108491;1285;22782;-80
2023/07/17 11:08:36;;;;;;;4.10;2.80;;;;;;;32.72;27.83;100410.45;108640;1280;21999;-78
2023/07/17 11:11:59;;;;;;;;;;;;;;;;;;;;;
2023/07/17 11:15:42;;;;;;;4.80;3.00;;;;;;;32.76;27.66;100393.96;110343;1262;22743;-82
2023/07/17 11:18:30;;;;;;;6.10;3.30;;;;;;;32.78;27.82;100398.41;110536;1262;22574;-81
2023/07/17 11:21:18;;;;;;;14.70;3.50;;;;;;;32.80;28.10;100392.30;110479;1263;21961;-81
2023/07/17 11:24:05;;;;;;;6.80;3.50;;;;;;;32.72;27.69;100393.80;110354;1262;21978;-80
2023/07/17 11:27:03;;;;;;;3.70;3.00;;;;;;;32.59;28.05;100393.70;110443;1260;21965;-80
2023/07/17 11:30:01;;;;;;;6.40;3.40;;;;;;;32.46;28.11;100389.19;110328;1262;21930;-80
2023/07/17 11:33:09;;;;;;;8.80;3.80;;;;;;;32.38;28.46;100387.08;110233;1263;24294;-80
2023/07/17 11:36:02;;;;;;;;;;;;;;;;;;;;;
2023/07/17 11:38:57;;;;;;;10.30;3.50;;;;;;;32.20;28.69;100407.38;111283;1255;23750;-80
2023/07/17 11:41:48;;;;;;;5.20;3.00;;;;;;;32.01;28.96;100408.48;111268;1254;23016;-80
2023/07/17 11:44:38;;;;;;;5.80;3.10;;;;;;;31.85;29.10;100412.84;111330;1252;22711;-80
2023/07/17 11:47:39;;;;;;;4.90;2.80;;;;;;;31.64;29.17;100421.81;110950;1254;23036;-81
2023/07/17 11:50:27;;;;;;;7.60;3.90;;;;;;;31.50;29.32;100429.70;111013;1257;23586;-79
2023/07/17 11:53:16;;;;;;;14.30;3.80;;;;;;;31.43;29.32;100430.27;111048;1257;22950;-81
2023/07/17 11:56:03;;;;;;;9.50;2.60;;;;;;;31.37;29.53;100425.18;110939;1257;22731;-79
2023/07/17 11:58:37;;;;;;;9.80;3.30;;;;;;;31.28;29.41;100427.01;111091;1257;21958;-79
2023/07/17 12:01:12;;;;;;;4.90;3.20;;;;;;;31.17;29.65;100426.50;111074;1258;22535;-78
2023/07/17 12:03:50;;;;;;;5.50;3.10;;;;;;;31.08;30.06;100426.42;110777;1258;21958;-78
2023/07/17 12:06:23;;;;;;;7.90;3.00;;;;;;;31.01;30.01;100421.98;110968;1254;22731;-78
2023/07/17 12:08:56;;;;;;;;;;;;;;;31.00;30.02;100420.64;110269;1264;21977;-81
2023/07/17 12:11:54;;;;;;;6.60;3.00;;;;;;;30.94;30.28;100414.88;110412;1265;22432;-79
2023/07/17 12:14:51;;;;;;;5.80;3.00;;;;;;;31.03;30.34;100415.04;110259;1265;21973;-78
2023/07/17 12:18:07;;;;;;;8.30;3.30;;;;;;;31.21;30.60;100413.98;110124;1261;21985;-77
2023/07/17 12:20:44;;;;;;;8.20;2.80;;;;;;;31.31;29.87;100408.52;110326;1265;21962;-78
2023/07/17 12:23:59;;;;;;;8.90;3.30;;;;;;;31.40;30.10;100402.85;110624;1264;23026;-78
2023/07/17 12:27:05;;;;;;;7.00;3.40;;;;;;;31.52;29.99;100395.08;110525;1259;21961;-79
2023/07/17 12:33:15;;;;;;;4.70;3.00;;;;;;;31.67;29.24;100400.77;110083;1265;23083;-78
2023/07/17 12:35:56;;;;;;;3.90;2.70;;;;;;;31.70;29.31;100398.61;110082;1267;23835;-80
2023/07/17 12:38:36;;;;;;;5.10;2.80;;;;;;;31.69;29.29;100389.05;109173;1273;22009;-78
2023/07/17 12:41:42;;;;;;;4.70;2.50;;;;;;;31.72;28.99;100399.73;109026;1273;21978;-79
2023/07/17 12:44:38;;;;;;;5.20;2.80;;;;;;;31.66;28.69;100399.98;109094;1273;23065;-79
2023/07/17 12:47:29;;;;;;;4.00;2.50;;;;;;;31.49;28.55;100403.98;109198;1273;23770;-77
2023/07/17 12:50:35;;;;;;;4.60;2.80;;;;;;;31.20;28.66;100402.23;108823;1279;22002;-76
2023/07/17 12:53:34;;;;;;;5.10;2.80;;;;;;;30.96;28.81;100396.90;109142;1271;23817;-77
2023/07/17 12:56:06;;;;;;;6.40;3.10;;;;;;;30.76;28.98;100390.52;108490;1274;21992;-76
2023/07/17 12:59:02;;;;;;;5.10;3.50;;;;;;;30.59;29.14;100385.77;108653;1278;22990;-78
2023/07/17 13:01:37;;;;;;;7.00;3.60;;;;;;;30.51;29.11;100377.38;108857;1276;23706;-77
2023/07/17 13:04:21;;;;;;;11.00;3.50;;;;;;;30.51;29.47;100376.51;108902;1276;22036;-77
2023/07/17 13:07:08;;;;;;;5.90;2.80;;;;;;;30.60;29.58;100379.59;108877;1271;23072;-78
2023/07/17 13:10:22;;;;;;;4.30;3.40;;;;;;;30.62;29.19;100374.95;109902;1265;22840;-78
2023/07/17 13:13:05;;;;;;;;;;;;;;;30.67;29.02;100382.50;110174;1265;22166;-78
2023/07/17 13:15:42;;;;;;;4.10;2.80;;;;;;;30.64;28.94;100383.55;110630;1260;21970;-77
2023/07/17 13:18:24;;;;;;;8.90;2.80;;;;;;;30.73;28.59;100382.02;110565;1260;21972;-77
2023/07/17 13:21:45;;;;;;;;;;;;;;;;;;;;;
2023/07/17 13:24:35;;;;;;;5.20;3.00;;;;;;;30.82;28.19;100379.61;110877;1246;22069;-80
2023/07/17 13:27:22;;;;;;;9.30;3.50;;;;;;;30.82;28.05;100383.55;110970;1254;21967;-80
2023/07/17 13:30:14;;;;;;;6.40;3.30;;;;;;;30.72;27.91;100381.70;111030;1255;21964;-77
2023/07/17 13:33:02;;;;;;;6.10;3.40;;;;;;;30.57;28.10;100367.59;111151;1255;21963;-77
2023/07/17 13:35:40;;;;;;;13.40;3.50;;;;;;;30.60;28.10;100373.98;111320;1254;23698;-77
2023/07/17 13:38:17;;;;;;;6.50;2.90;;;;;;;30.58;28.30;100381.41;111234;1253;21959;-78
2023/07/17 13:41:43;;;;;;;5.40;3.30;;;;;;;30.48;28.26;100375.06;110669;1260;21978;-78
2023/07/17 13:44:29;;;;;;;6.70;3.40;;;;;;;30.41;28.30;100372.50;110477;1262;21983;-81
2023/07/17 13:47:44;;;;;;;;;;;;;;;;;;;;;
2023/07/17 13:50:50;;;;;;;5.10;3.30;;;;;;;30.35;28.65;100371.82;110117;1267;23606;-76
2023/07/17 13:53:31;;;;;;;6.00;3.10;;;;;;;30.43;28.47;100371.20;109493;1256;22724;-77
2023/07/17 13:56:06;;;;;;;6.10;3.00;;;;;;;30.44;28.27;100368.56;109696;1267;23042;-77
2023/07/17 13:58:45;;;;;;;7.40;3.30;;;;;;;30.44;28.20;100369.44;109968;1267;21986;-81
2023/07/17 14:01:24;;;;;;;5.90;3.00;;;;;;;30.41;28.19;100370.95;110279;1267;22946;-79
2023/07/17 14:04:23;;;;;;;10.90;3.70;;;;;;;30.34;28.29;100364.14;110572;1264;23047;-81
2023/07/17 14:06:59;;;;;;;4.80;2.90;;;;;;;30.25;28.29;100361.92;110513;1264;21969;-79
2023/07/17 14:09:52;;;;;;;5.40;3.80;;;;;;;30.16;28.27;100359.25;110728;1260;22374;-78
2023/07/17 14:12:55;;;;;;;7.30;3.50;;;;;;;30.15;28.53;100361.51;110876;1260;22135;-81
2023/07/17 14:15:34;;;;;;;8.70;3.70;;;;;;;30.17;28.36;100364.59;110630;1264;23020;-80
2023/07/17 14:18:16;;;;;;;11.00;4.20;;;;;;;30.15;28.39;100360.42;109882;1266;22723;-79
2023/07/17 14:20:54;;;;;;;8.10;4.20;;;;;;;30.13;28.44;100358.53;109640;1269;22545;-78
2023/07/17 14:23:52;;;;;;;8.50;3.80;;;;;;;30.08;28.20;100355.31;110051;1266;21987;-79
2023/07/17 14:26:44;;;;;;;5.40;3.40;;;;;;;29.98;28.23;100352.20;109792;1263;22060;-78
2023/07/17 14:29:34;;;;;;;7.40;3.70;;;;;;;29.94;28.21;100347.50;109766;1269;23652;-78
2023/07/17 14:32:16;;;;;;;5.80;3.10;;;;;;;29.91;28.17;100347.79;109639;1263;22985;-77
2023/07/17 14:35:12;;;;;;;5.80;4.00;;;;;;;29.92;28.28;100341.84;110013;1267;22729;-78
2023/07/17 14:37:59;;;;;;;11.10;4.90;;;;;;;29.92;28.30;100347.52;110588;1263;23644;-77
2023/07/17 14:40:47;;;;;;;11.30;5.20;;;;;;;29.92;28.05;100333.40;110363;1262;24153;-77
2023/07/17 14:43:45;;;;;;;;;;;;;;;;;;;;;
2023/07/17 14:47:23;;;;;;;;;;;;;;;;;;;;;
2023/07/17 14:50:19;;;;;;;7.30;3.60;;;;;;;30.06;27.91;100332.10;111013;1260;21995;-80
2023/07/17 14:53:30;;;;;;;;;;;;;;;;;;;;;
2023/07/17 14:56:19;;;;;;;9.20;4.60;;;;;;;29.90;27.66;100330.33;111117;1258;23748;-79
2023/07/17 14:59:10;;;;;;;8.50;3.90;;;;;;;29.87;27.75;100323.27;110872;1258;23810;-80
2023/07/17 15:02:03;;;;;;;7.40;3.70;;;;;;;29.89;27.67;100315.14;110829;1258;22068;-78
2023/07/17 15:05:03;;;;;;;9.00;3.80;;;;;;;29.92;27.45;100315.48;111141;1253;23605;-80
2023/07/17 15:07:50;;;;;;;8.60;4.10;;;;;;;29.90;27.13;100315.83;110638;1259;21991;-80
2023/07/17 15:10:47;;;;;;;8.10;4.10;;;;;;;29.92;27.08;100312.08;110660;1261;24497;-80
2023/07/17 15:13:42;;;;;;;8.30;3.90;;;;;;;29.88;26.93;100314.09;110585;1261;21965;-79
2023/07/17 15:16:34;;;;;;;7.10;3.90;;;;;;;29.86;26.84;100315.80;110557;1261;21995;-79
2023/07/17 15:19:41;;;;;;;9.90;4.50;;;;;;;29.85;26.56;100315.04;110442;1261;21948;-76
2023/07/17 15:22:24;;;;;;;13.10;3.80;;;;;;;29.81;26.24;100309.61;110476;1261;21962;-78
2023/07/17 15:25:24;;;;;;;;;;;;;;;;;;;;;
2023/07/17 15:27:58;;;;;;;5.30;3.80;;;;;;;29.74;26.10;100299.98;111011;1260;23661;-80
2023/07/17 15:30:28;;;;;;;;;;;;;;;29.82;25.92;100306.11;110177;1267;21953;-78
2023/07/17 15:33:02;;;;;;;5.10;3.90;;;;;;;29.74;26.01;100305.55;110177;1262;22003;-78
2023/07/17 15:35:39;;;;;;;6.50;4.10;;;;;;;29.80;25.68;100304.55;110462;1262;21961;-81
2023/07/17 15:38:15;;;;;;;15.20;5.20;;;;;;;29.84;25.53;100307.80;110482;1257;22663;-77
2023/07/17 15:41:04;;;;;;;19.00;5.30;;;;;;;29.87;25.24;100310.32;110402;1262;23090;-77
2023/07/17 15:43:40;;;;;;;8.80;3.90;;;;;;;29.87;24.91;100306.58;110099;1265;22397;-77